sensor_id;sensor_type;location;lat;lon;timestamp;temperature;humidity
20432;DHT22;10375;49.136;10.366;2024-01-07T00:00:09;3.20;99.90
20432;DHT22;10375;49.136;10.366;2024-01-07T00:02:36;3.20;99.90
20432;DHT22;10375;49.136;10.366;2024-01-07T00:05:04;3.20;99.90
20432;DHT22;10375;49.136;10.366;2024-01-07T00:07:32;3.20;99.90
20432;DHT22;10375;49.136;10.366;2024-01-07T00:10:00;3.20;99.90
20432;DHT22;10375;49.136;10.366;2024-01-07T00:12:28;3.30;99.90
20432;DHT22;10375;49.136;10.366;2024-01-07T00:14:56;3.30;99.90
20432;DHT22;10375;49.136;10.366;2024-01-07T00:17:23;3.20;99.90
20432;DHT22;10375;49.136;10.366;2024-01-07T00:19:50;3.20;99.90
20432;DHT22;10375;49.136;10.366;2024-01-07T00:22:18;3.20;99.90
20432;DHT22;10375;49.136;10.366;2024-01-07T00:24:45;3.20;99.90
20432;DHT22;10375;49.136;10.366;2024-01-07T00:27:12;3.10;99.90
20432;DHT22;10375;49.136;10.366;2024-01-07T00:29:39;3.20;99.90
20432;DHT22;10375;49.136;10.366;2024-01-07T00:32:06;3.20;99.90
20432;DHT22;10375;49.136;10.366;2024-01-07T00:34:33;3.20;99.90
20432;DHT22;10375;49.136;10.366;2024-01-07T00:37:01;3.20;99.90
20432;DHT22;10375;49.136;10.366;2024-01-07T00:39:28;3.30;99.90
20432;DHT22;10375;49.136;10.366;2024-01-07T00:41:55;3.20;99.90
20432;DHT22;10375;49.136;10.366;2024-01-07T00:44:22;3.20;99.90
20432;DHT22;10375;49.136;10.366;2024-01-07T00:46:49;3.20;99.90
20432;DHT22;10375;49.136;10.366;2024-01-07T00:49:16;3.20;99.90
20432;DHT22;10375;49.136;10.366;2024-01-07T00:51:44;3.10;99.90
20432;DHT22;10375;49.136;10.366;2024-01-07T00:54:11;3.20;99.90
20432;DHT22;10375;49.136;10.366;2024-01-07T00:56:38;3.10;99.90
20432;DHT22;10375;49.136;10.366;2024-01-07T00:59:05;3.20;99.90
20432;DHT22;10375;49.136;10.366;2024-01-07T01:01:32;3.20;99.90
20432;DHT22;10375;49.136;10.366;2024-01-07T01:04:00;3.20;99.90
20432;DHT22;10375;49.136;10.366;2024-01-07T01:06:27;3.10;99.90
20432;DHT22;10375;49.136;10.366;2024-01-07T01:08:54;3.10;99.90
20432;DHT22;10375;49.136;10.366;2024-01-07T01:11:21;3.10;99.90
20432;DHT22;10375;49.136;10.366;2024-01-07T01:13:48;3.10;99.90
20432;DHT22;10375;49.136;10.366;2024-01-07T01:16:15;3.10;99.90
20432;DHT22;10375;49.136;10.366;2024-01-07T01:18:42;3.10;99.90
20432;DHT22;10375;49.136;10.366;2024-01-07T01:21:10;3.10;99.90
20432;DHT22;10375;49.136;10.366;2024-01-07T01:23:37;3.00;99.90
20432;DHT22;10375;49.136;10.366;2024-01-07T01:26:04;3.00;99.90
20432;DHT22;10375;49.136;10.366;2024-01-07T01:28:32;3.00;99.90
20432;DHT22;10375;49.136;10.366;2024-01-07T01:30:59;3.00;99.90
20432;DHT22;10375;49.136;10.366;2024-01-07T01:33:26;3.00;99.90
20432;DHT22;10375;49.136;10.366;2024-01-07T01:35:53;3.00;99.90
20432;DHT22;10375;49.136;10.366;2024-01-07T01:38:20;3.10;99.90
20432;DHT22;10375;49.136;10.366;2024-01-07T01:40:54;3.00;99.90
20432;DHT22;10375;49.136;10.366;2024-01-07T01:43:25;3.10;99.90
20432;DHT22;10375;49.136;10.366;2024-01-07T01:45:54;3.10;99.90
20432;DHT22;10375;49.136;10.366;2024-01-07T01:48:23;3.00;99.90
20432;DHT22;10375;49.136;10.366;2024-01-07T01:50:53;3.00;99.90
20432;DHT22;10375;49.136;10.366;2024-01-07T01:53:21;3.00;99.90
20432;DHT22;10375;49.136;10.366;2024-01-07T01:55:48;3.10;99.90
20432;DHT22;10375;49.136;10.366;2024-01-07T01:58:18;3.10;99.90
20432;DHT22;10375;49.136;10.366;2024-01-07T02:00:46;3.00;99.90
20432;DHT22;10375;49.136;10.366;2024-01-07T02:03:13;3.00;99.90
20432;DHT22;10375;49.136;10.366;2024-01-07T02:05:40;3.10;99.90
20432;DHT22;10375;49.136;10.366;2024-01-07T02:08:08;3.00;99.90
20432;DHT22;10375;49.136;10.366;2024-01-07T02:10:35;3.00;99.90
20432;DHT22;10375;49.136;10.366;2024-01-07T02:13:07;3.00;99.90
20432;DHT22;10375;49.136;10.366;2024-01-07T02:15:34;3.00;99.90
20432;DHT22;10375;49.136;10.366;2024-01-07T02:18:01;3.10;99.90
20432;DHT22;10375;49.136;10.366;2024-01-07T02:20:29;3.20;99.90
20432;DHT22;10375;49.136;10.366;2024-01-07T02:22:56;3.10;99.90
20432;DHT22;10375;49.136;10.366;2024-01-07T02:25:26;3.20;99.90
20432;DHT22;10375;49.136;10.366;2024-01-07T02:27:53;3.10;99.90
20432;DHT22;10375;49.136;10.366;2024-01-07T02:30:20;3.10;99.90
20432;DHT22;10375;49.136;10.366;2024-01-07T02:32:48;3.10;99.90
20432;DHT22;10375;49.136;10.366;2024-01-07T02:35:15;3.10;99.90
20432;DHT22;10375;49.136;10.366;2024-01-07T02:37:42;3.20;99.90
20432;DHT22;10375;49.136;10.366;2024-01-07T02:40:10;3.10;99.90
20432;DHT22;10375;49.136;10.366;2024-01-07T02:42:37;3.20;99.90
20432;DHT22;10375;49.136;10.366;2024-01-07T02:45:04;3.10;99.90
20432;DHT22;10375;49.136;10.366;2024-01-07T02:47:32;3.10;99.90
20432;DHT22;10375;49.136;10.366;2024-01-07T02:49:59;3.20;99.90
20432;DHT22;10375;49.136;10.366;2024-01-07T02:52:26;3.20;99.90
20432;DHT22;10375;49.136;10.366;2024-01-07T02:54:53;3.20;99.90
20432;DHT22;10375;49.136;10.366;2024-01-07T02:57:20;3.20;99.90
20432;DHT22;10375;49.136;10.366;2024-01-07T02:59:48;3.20;99.90
20432;DHT22;10375;49.136;10.366;2024-01-07T03:02:15;3.20;99.90
20432;DHT22;10375;49.136;10.366;2024-01-07T03:04:43;3.20;99.90
20432;DHT22;10375;49.136;10.366;2024-01-07T03:07:10;3.30;99.90
20432;DHT22;10375;49.136;10.366;2024-01-07T03:09:37;3.20;99.90
20432;DHT22;10375;49.136;10.366;2024-01-07T03:12:04;3.30;99.90
20432;DHT22;10375;49.136;10.366;2024-01-07T03:14:32;3.30;99.90
20432;DHT22;10375;49.136;10.366;2024-01-07T03:16:59;3.20;99.90
20432;DHT22;10375;49.136;10.366;2024-01-07T03:19:26;3.20;99.90
20432;DHT22;10375;49.136;10.366;2024-01-07T03:21:53;3.20;99.90
20432;DHT22;10375;49.136;10.366;2024-01-07T03:24:20;3.30;99.90
20432;DHT22;10375;49.136;10.366;2024-01-07T03:26:47;3.30;99.90
20432;DHT22;10375;49.136;10.366;2024-01-07T03:29:14;3.30;99.90
20432;DHT22;10375;49.136;10.366;2024-01-07T03:31:41;3.40;99.90
20432;DHT22;10375;49.136;10.366;2024-01-07T03:34:09;3.30;99.90
20432;DHT22;10375;49.136;10.366;2024-01-07T03:36:36;3.40;99.90
20432;DHT22;10375;49.136;10.366;2024-01-07T03:39:03;3.40;99.90
20432;DHT22;10375;49.136;10.366;2024-01-07T03:41:30;3.40;99.90
20432;DHT22;10375;49.136;10.366;2024-01-07T03:43:57;3.30;99.90
20432;DHT22;10375;49.136;10.366;2024-01-07T03:46:25;3.30;99.90
20432;DHT22;10375;49.136;10.366;2024-01-07T03:48:52;3.30;99.90
20432;DHT22;10375;49.136;10.366;2024-01-07T03:51:19;3.30;99.90
20432;DHT22;10375;49.136;10.366;2024-01-07T03:53:46;3.30;99.90
20432;DHT22;10375;49.136;10.366;2024-01-07T03:56:13;3.30;99.90
20432;DHT22;10375;49.136;10.366;2024-01-07T03:58:40;3.30;99.90
20432;DHT22;10375;49.136;10.366;2024-01-07T04:01:07;3.30;99.90
20432;DHT22;10375;49.136;10.366;2024-01-07T04:03:35;3.30;99.90
20432;DHT22;10375;49.136;10.366;2024-01-07T04:06:06;3.30;99.90
20432;DHT22;10375;49.136;10.366;2024-01-07T04:08:35;3.40;99.90
20432;DHT22;10375;49.136;10.366;2024-01-07T04:11:02;3.40;99.90
20432;DHT22;10375;49.136;10.366;2024-01-07T04:13:30;3.40;99.90
20432;DHT22;10375;49.136;10.366;2024-01-07T04:15:57;3.30;99.90
20432;DHT22;10375;49.136;10.366;2024-01-07T04:18:24;3.40;99.90
20432;DHT22;10375;49.136;10.366;2024-01-07T04:20:51;3.30;99.90
20432;DHT22;10375;49.136;10.366;2024-01-07T04:23:18;3.30;99.90
20432;DHT22;10375;49.136;10.366;2024-01-07T04:25:45;3.30;99.90
20432;DHT22;10375;49.136;10.366;2024-01-07T04:28:12;3.30;99.90
20432;DHT22;10375;49.136;10.366;2024-01-07T04:30:39;3.20;99.90
20432;DHT22;10375;49.136;10.366;2024-01-07T04:33:07;3.20;99.90
20432;DHT22;10375;49.136;10.366;2024-01-07T04:35:34;3.30;99.90
20432;DHT22;10375;49.136;10.366;2024-01-07T04:38:02;3.30;99.90
20432;DHT22;10375;49.136;10.366;2024-01-07T04:40:29;3.30;99.90
20432;DHT22;10375;49.136;10.366;2024-01-07T04:42:56;3.30;99.90
20432;DHT22;10375;49.136;10.366;2024-01-07T04:45:23;3.30;99.90
20432;DHT22;10375;49.136;10.366;2024-01-07T04:47:50;3.20;99.90
20432;DHT22;10375;49.136;10.366;2024-01-07T04:50:18;3.10;99.90
20432;DHT22;10375;49.136;10.366;2024-01-07T04:52:46;3.10;99.90
20432;DHT22;10375;49.136;10.366;2024-01-07T04:55:13;3.10;99.90
20432;DHT22;10375;49.136;10.366;2024-01-07T04:57:41;3.10;99.90
20432;DHT22;10375;49.136;10.366;2024-01-07T05:00:08;3.10;99.90
20432;DHT22;10375;49.136;10.366;2024-01-07T05:02:35;3.10;99.90
20432;DHT22;10375;49.136;10.366;2024-01-07T05:05:03;3.10;99.90
20432;DHT22;10375;49.136;10.366;2024-01-07T05:07:30;3.10;99.90
20432;DHT22;10375;49.136;10.366;2024-01-07T05:09:57;3.00;99.90
20432;DHT22;10375;49.136;10.366;2024-01-07T05:12:25;3.10;99.90
20432;DHT22;10375;49.136;10.366;2024-01-07T05:14:52;3.00;99.90
20432;DHT22;10375;49.136;10.366;2024-01-07T05:17:20;3.00;99.90
20432;DHT22;10375;49.136;10.366;2024-01-07T05:19:47;3.00;99.90
20432;DHT22;10375;49.136;10.366;2024-01-07T05:22:14;2.90;99.90
20432;DHT22;10375;49.136;10.366;2024-01-07T05:24:42;2.90;99.90
20432;DHT22;10375;49.136;10.366;2024-01-07T05:27:09;2.90;99.90
20432;DHT22;10375;49.136;10.366;2024-01-07T05:29:36;2.90;99.90
20432;DHT22;10375;49.136;10.366;2024-01-07T05:32:03;2.90;99.90
20432;DHT22;10375;49.136;10.366;2024-01-07T05:34:31;3.00;99.90
20432;DHT22;10375;49.136;10.366;2024-01-07T05:36:58;2.90;99.90
20432;DHT22;10375;49.136;10.366;2024-01-07T05:39:26;2.90;99.90
20432;DHT22;10375;49.136;10.366;2024-01-07T05:41:53;2.90;99.90
20432;DHT22;10375;49.136;10.366;2024-01-07T05:44:20;2.90;99.90
20432;DHT22;10375;49.136;10.366;2024-01-07T05:46:47;2.80;99.90
20432;DHT22;10375;49.136;10.366;2024-01-07T05:49:14;2.80;99.90
20432;DHT22;10375;49.136;10.366;2024-01-07T05:51:41;2.80;99.90
20432;DHT22;10375;49.136;10.366;2024-01-07T05:54:09;2.70;99.90
20432;DHT22;10375;49.136;10.366;2024-01-07T05:56:42;2.70;99.90
20432;DHT22;10375;49.136;10.366;2024-01-07T05:59:09;2.70;99.90
20432;DHT22;10375;49.136;10.366;2024-01-07T06:01:39;2.70;99.90
20432;DHT22;10375;49.136;10.366;2024-01-07T06:04:06;2.60;99.90
20432;DHT22;10375;49.136;10.366;2024-01-07T06:06:33;2.60;99.90
20432;DHT22;10375;49.136;10.366;2024-01-07T06:09:01;2.60;99.90
20432;DHT22;10375;49.136;10.366;2024-01-07T06:11:29;2.50;99.90
20432;DHT22;10375;49.136;10.366;2024-01-07T06:13:56;2.50;99.90
20432;DHT22;10375;49.136;10.366;2024-01-07T06:16:23;2.50;99.90
20432;DHT22;10375;49.136;10.366;2024-01-07T06:18:53;2.50;99.90
20432;DHT22;10375;49.136;10.366;2024-01-07T06:21:23;2.40;99.90
20432;DHT22;10375;49.136;10.366;2024-01-07T06:23:50;2.40;99.90
20432;DHT22;10375;49.136;10.366;2024-01-07T06:26:17;2.40;99.90
20432;DHT22;10375;49.136;10.366;2024-01-07T06:28:45;2.40;99.90
20432;DHT22;10375;49.136;10.366;2024-01-07T06:31:12;2.40;99.90
20432;DHT22;10375;49.136;10.366;2024-01-07T06:33:39;2.30;99.90
20432;DHT22;10375;49.136;10.366;2024-01-07T06:36:07;2.20;99.90
20432;DHT22;10375;49.136;10.366;2024-01-07T06:38:34;2.30;99.90
20432;DHT22;10375;49.136;10.366;2024-01-07T06:41:01;2.30;99.90
20432;DHT22;10375;49.136;10.366;2024-01-07T06:43:31;2.30;99.90
20432;DHT22;10375;49.136;10.366;2024-01-07T06:45:59;2.30;99.90
20432;DHT22;10375;49.136;10.366;2024-01-07T06:48:26;2.20;99.90
20432;DHT22;10375;49.136;10.366;2024-01-07T06:50:53;2.20;99.90
20432;DHT22;10375;49.136;10.366;2024-01-07T06:53:21;2.20;99.90
20432;DHT22;10375;49.136;10.366;2024-01-07T06:55:48;2.20;99.90
20432;DHT22;10375;49.136;10.366;2024-01-07T06:58:15;2.20;99.90
20432;DHT22;10375;49.136;10.366;2024-01-07T07:00:42;2.20;99.90
20432;DHT22;10375;49.136;10.366;2024-01-07T07:03:10;2.20;99.90
20432;DHT22;10375;49.136;10.366;2024-01-07T07:05:38;2.20;99.90
20432;DHT22;10375;49.136;10.366;2024-01-07T07:08:05;2.10;99.90
20432;DHT22;10375;49.136;10.366;2024-01-07T07:10:33;2.20;99.90
20432;DHT22;10375;49.136;10.366;2024-01-07T07:13:01;2.10;99.90
20432;DHT22;10375;49.136;10.366;2024-01-07T07:15:29;2.10;99.90
20432;DHT22;10375;49.136;10.366;2024-01-07T07:17:57;2.10;99.90
20432;DHT22;10375;49.136;10.366;2024-01-07T07:20:24;2.10;99.90
20432;DHT22;10375;49.136;10.366;2024-01-07T07:22:51;2.10;99.90
20432;DHT22;10375;49.136;10.366;2024-01-07T07:25:18;2.00;99.90
20432;DHT22;10375;49.136;10.366;2024-01-07T07:27:46;2.00;99.90
20432;DHT22;10375;49.136;10.366;2024-01-07T07:30:13;2.00;99.90
20432;DHT22;10375;49.136;10.366;2024-01-07T07:32:41;2.00;99.90
20432;DHT22;10375;49.136;10.366;2024-01-07T07:35:08;2.00;99.90
20432;DHT22;10375;49.136;10.366;2024-01-07T07:37:36;2.00;99.90
20432;DHT22;10375;49.136;10.366;2024-01-07T07:40:03;1.90;99.90
20432;DHT22;10375;49.136;10.366;2024-01-07T07:42:30;2.00;99.90
20432;DHT22;10375;49.136;10.366;2024-01-07T07:44:58;1.90;99.90
20432;DHT22;10375;49.136;10.366;2024-01-07T07:47:25;1.90;99.90
20432;DHT22;10375;49.136;10.366;2024-01-07T07:49:52;1.90;99.90
20432;DHT22;10375;49.136;10.366;2024-01-07T07:52:19;1.80;99.90
20432;DHT22;10375;49.136;10.366;2024-01-07T07:54:52;1.90;99.90
20432;DHT22;10375;49.136;10.366;2024-01-07T07:57:19;1.90;99.90
20432;DHT22;10375;49.136;10.366;2024-01-07T07:59:49;1.80;99.90
20432;DHT22;10375;49.136;10.366;2024-01-07T08:02:16;1.80;99.90
20432;DHT22;10375;49.136;10.366;2024-01-07T08:04:44;1.80;99.90
20432;DHT22;10375;49.136;10.366;2024-01-07T08:07:11;1.80;99.90
20432;DHT22;10375;49.136;10.366;2024-01-07T08:09:38;1.80;99.90
20432;DHT22;10375;49.136;10.366;2024-01-07T08:12:07;1.80;99.90
20432;DHT22;10375;49.136;10.366;2024-01-07T08:14:38;1.80;99.90
20432;DHT22;10375;49.136;10.366;2024-01-07T08:17:08;1.80;99.90
20432;DHT22;10375;49.136;10.366;2024-01-07T08:19:36;1.70;99.90
20432;DHT22;10375;49.136;10.366;2024-01-07T08:22:03;1.70;99.90
20432;DHT22;10375;49.136;10.366;2024-01-07T08:24:31;1.70;99.90
20432;DHT22;10375;49.136;10.366;2024-01-07T08:26:58;1.70;99.90
20432;DHT22;10375;49.136;10.366;2024-01-07T08:29:26;1.70;99.90
20432;DHT22;10375;49.136;10.366;2024-01-07T08:31:53;1.80;99.90
20432;DHT22;10375;49.136;10.366;2024-01-07T08:34:25;1.70;99.90
20432;DHT22;10375;49.136;10.366;2024-01-07T08:36:54;1.70;99.90
20432;DHT22;10375;49.136;10.366;2024-01-07T08:39:22;1.70;99.90
20432;DHT22;10375;49.136;10.366;2024-01-07T08:41:51;1.80;99.90
20432;DHT22;10375;49.136;10.366;2024-01-07T08:44:18;1.80;99.90
20432;DHT22;10375;49.136;10.366;2024-01-07T08:46:45;1.80;99.90
20432;DHT22;10375;49.136;10.366;2024-01-07T08:49:12;1.80;99.90
20432;DHT22;10375;49.136;10.366;2024-01-07T08:51:40;1.80;99.90
20432;DHT22;10375;49.136;10.366;2024-01-07T08:54:17;1.80;99.90
20432;DHT22;10375;49.136;10.366;2024-01-07T08:56:44;1.80;99.90
20432;DHT22;10375;49.136;10.366;2024-01-07T08:59:12;1.80;99.90
20432;DHT22;10375;49.136;10.366;2024-01-07T09:01:39;1.80;99.90
20432;DHT22;10375;49.136;10.366;2024-01-07T09:04:06;1.80;99.90
20432;DHT22;10375;49.136;10.366;2024-01-07T09:06:33;1.80;99.90
20432;DHT22;10375;49.136;10.366;2024-01-07T09:09:01;1.80;99.90
20432;DHT22;10375;49.136;10.366;2024-01-07T09:11:34;1.70;99.90
20432;DHT22;10375;49.136;10.366;2024-01-07T09:14:03;1.70;99.90
20432;DHT22;10375;49.136;10.366;2024-01-07T09:16:30;1.70;99.90
20432;DHT22;10375;49.136;10.366;2024-01-07T09:18:57;1.70;99.90
20432;DHT22;10375;49.136;10.366;2024-01-07T09:21:25;1.70;99.90
20432;DHT22;10375;49.136;10.366;2024-01-07T09:23:52;1.80;99.90
20432;DHT22;10375;49.136;10.366;2024-01-07T09:26:19;1.80;99.90
20432;DHT22;10375;49.136;10.366;2024-01-07T09:28:47;1.80;99.90
20432;DHT22;10375;49.136;10.366;2024-01-07T09:31:14;1.80;99.90
20432;DHT22;10375;49.136;10.366;2024-01-07T09:33:42;1.70;99.90
20432;DHT22;10375;49.136;10.366;2024-01-07T09:36:09;1.70;99.90
20432;DHT22;10375;49.136;10.366;2024-01-07T09:38:54;1.70;99.90
20432;DHT22;10375;49.136;10.366;2024-01-07T09:41:30;1.70;99.90
20432;DHT22;10375;49.136;10.366;2024-01-07T09:43:58;1.70;99.90
20432;DHT22;10375;49.136;10.366;2024-01-07T09:46:26;1.70;99.90
20432;DHT22;10375;49.136;10.366;2024-01-07T09:48:55;1.70;99.90
20432;DHT22;10375;49.136;10.366;2024-01-07T09:51:23;1.60;99.90
20432;DHT22;10375;49.136;10.366;2024-01-07T09:53:55;1.60;99.90
20432;DHT22;10375;49.136;10.366;2024-01-07T09:56:25;1.60;99.90
20432;DHT22;10375;49.136;10.366;2024-01-07T09:58:53;1.60;99.90
20432;DHT22;10375;49.136;10.366;2024-01-07T10:01:24;1.60;99.90
20432;DHT22;10375;49.136;10.366;2024-01-07T10:03:53;1.50;99.90
20432;DHT22;10375;49.136;10.366;2024-01-07T10:06:20;1.50;99.90
20432;DHT22;10375;49.136;10.366;2024-01-07T10:08:48;1.50;99.90
20432;DHT22;10375;49.136;10.366;2024-01-07T10:11:15;1.50;99.90
20432;DHT22;10375;49.136;10.366;2024-01-07T10:13:45;1.50;99.90
20432;DHT22;10375;49.136;10.366;2024-01-07T10:16:18;1.50;99.90
20432;DHT22;10375;49.136;10.366;2024-01-07T10:18:45;1.40;99.90
20432;DHT22;10375;49.136;10.366;2024-01-07T10:21:12;1.40;99.90
20432;DHT22;10375;49.136;10.366;2024-01-07T10:23:39;1.40;99.90
20432;DHT22;10375;49.136;10.366;2024-01-07T10:26:06;1.30;99.90
20432;DHT22;10375;49.136;10.366;2024-01-07T10:28:49;1.20;99.90
20432;DHT22;10375;49.136;10.366;2024-01-07T10:31:16;1.20;99.90
20432;DHT22;10375;49.136;10.366;2024-01-07T10:33:44;1.20;99.90
20432;DHT22;10375;49.136;10.366;2024-01-07T10:36:11;1.20;99.90
20432;DHT22;10375;49.136;10.366;2024-01-07T10:38:40;1.20;99.90
20432;DHT22;10375;49.136;10.366;2024-01-07T10:41:11;1.20;99.90
20432;DHT22;10375;49.136;10.366;2024-01-07T10:43:39;1.20;99.90
20432;DHT22;10375;49.136;10.366;2024-01-07T10:46:09;1.10;99.90
20432;DHT22;10375;49.136;10.366;2024-01-07T10:48:55;1.10;99.90
20432;DHT22;10375;49.136;10.366;2024-01-07T10:51:32;1.10;99.90
20432;DHT22;10375;49.136;10.366;2024-01-07T10:54:00;1.10;99.90
20432;DHT22;10375;49.136;10.366;2024-01-07T10:56:38;1.00;99.90
20432;DHT22;10375;49.136;10.366;2024-01-07T10:59:06;1.00;99.90
20432;DHT22;10375;49.136;10.366;2024-01-07T11:01:33;1.00;99.90
20432;DHT22;10375;49.136;10.366;2024-01-07T11:07:00;0.90;99.90
20432;DHT22;10375;49.136;10.366;2024-01-07T11:09:39;0.90;99.90
20432;DHT22;10375;49.136;10.366;2024-01-07T11:12:11;0.80;99.90
20432;DHT22;10375;49.136;10.366;2024-01-07T11:14:40;0.80;99.90
20432;DHT22;10375;49.136;10.366;2024-01-07T11:17:12;0.80;99.90
20432;DHT22;10375;49.136;10.366;2024-01-07T11:19:50;0.80;99.90
20432;DHT22;10375;49.136;10.366;2024-01-07T11:22:25;0.90;99.90
20432;DHT22;10375;49.136;10.366;2024-01-07T11:24:57;0.90;99.90
20432;DHT22;10375;49.136;10.366;2024-01-07T11:27:25;1.00;99.90
20432;DHT22;10375;49.136;10.366;2024-01-07T11:30:18;1.00;99.90
20432;DHT22;10375;49.136;10.366;2024-01-07T11:32:46;1.10;99.90
20432;DHT22;10375;49.136;10.366;2024-01-07T11:35:40;1.20;99.90
20432;DHT22;10375;49.136;10.366;2024-01-07T11:38:11;1.10;99.90
20432;DHT22;10375;49.136;10.366;2024-01-07T11:40:38;1.10;99.90
20432;DHT22;10375;49.136;10.366;2024-01-07T11:43:05;1.00;99.90
20432;DHT22;10375;49.136;10.366;2024-01-07T11:45:33;0.90;99.90
20432;DHT22;10375;49.136;10.366;2024-01-07T11:48:01;0.80;99.90
20432;DHT22;10375;49.136;10.366;2024-01-07T11:50:28;0.70;99.90
20432;DHT22;10375;49.136;10.366;2024-01-07T11:52:56;0.70;99.90
20432;DHT22;10375;49.136;10.366;2024-01-07T11:55:24;0.70;99.90
20432;DHT22;10375;49.136;10.366;2024-01-07T11:57:52;0.70;99.90
20432;DHT22;10375;49.136;10.366;2024-01-07T12:00:19;0.60;99.90
20432;DHT22;10375;49.136;10.366;2024-01-07T12:02:46;0.70;99.90
20432;DHT22;10375;49.136;10.366;2024-01-07T12:05:19;0.70;99.90
20432;DHT22;10375;49.136;10.366;2024-01-07T12:07:46;0.70;99.90
20432;DHT22;10375;49.136;10.366;2024-01-07T12:10:14;0.60;99.90
20432;DHT22;10375;49.136;10.366;2024-01-07T12:12:42;0.60;99.90
20432;DHT22;10375;49.136;10.366;2024-01-07T12:15:10;0.60;99.90
20432;DHT22;10375;49.136;10.366;2024-01-07T12:17:39;0.60;99.90
20432;DHT22;10375;49.136;10.366;2024-01-07T12:20:07;0.60;99.90
20432;DHT22;10375;49.136;10.366;2024-01-07T12:22:40;0.60;99.90
20432;DHT22;10375;49.136;10.366;2024-01-07T12:25:08;0.50;99.90
20432;DHT22;10375;49.136;10.366;2024-01-07T12:27:36;0.50;99.90
20432;DHT22;10375;49.136;10.366;2024-01-07T12:30:04;0.50;99.90
20432;DHT22;10375;49.136;10.366;2024-01-07T12:32:32;0.50;99.90
20432;DHT22;10375;49.136;10.366;2024-01-07T12:34:59;0.50;99.90
20432;DHT22;10375;49.136;10.366;2024-01-07T12:37:28;0.50;99.90
20432;DHT22;10375;49.136;10.366;2024-01-07T12:39:56;0.50;99.90
20432;DHT22;10375;49.136;10.366;2024-01-07T12:42:23;0.50;99.90
20432;DHT22;10375;49.136;10.366;2024-01-07T12:44:51;0.50;99.90
20432;DHT22;10375;49.136;10.366;2024-01-07T12:47:18;0.60;99.90
20432;DHT22;10375;49.136;10.366;2024-01-07T12:49:45;0.60;99.90
20432;DHT22;10375;49.136;10.366;2024-01-07T12:52:12;0.70;99.90
20432;DHT22;10375;49.136;10.366;2024-01-07T12:54:40;0.70;99.90
20432;DHT22;10375;49.136;10.366;2024-01-07T12:57:07;0.60;99.90
20432;DHT22;10375;49.136;10.366;2024-01-07T12:59:34;0.60;99.90
20432;DHT22;10375;49.136;10.366;2024-01-07T13:02:01;0.60;99.90
20432;DHT22;10375;49.136;10.366;2024-01-07T13:04:28;0.60;99.90
20432;DHT22;10375;49.136;10.366;2024-01-07T13:06:55;0.60;99.90
20432;DHT22;10375;49.136;10.366;2024-01-07T13:09:23;0.50;99.90
20432;DHT22;10375;49.136;10.366;2024-01-07T13:11:50;0.50;99.90
20432;DHT22;10375;49.136;10.366;2024-01-07T13:14:19;0.40;99.90
20432;DHT22;10375;49.136;10.366;2024-01-07T13:16:49;0.30;99.90
20432;DHT22;10375;49.136;10.366;2024-01-07T13:19:16;0.40;99.90
20432;DHT22;10375;49.136;10.366;2024-01-07T13:21:44;0.40;99.90
20432;DHT22;10375;49.136;10.366;2024-01-07T13:24:14;0.40;99.90
20432;DHT22;10375;49.136;10.366;2024-01-07T13:26:41;0.50;99.90
20432;DHT22;10375;49.136;10.366;2024-01-07T13:29:09;0.50;99.90
20432;DHT22;10375;49.136;10.366;2024-01-07T13:31:36;0.40;99.90
20432;DHT22;10375;49.136;10.366;2024-01-07T13:34:03;0.40;99.90
20432;DHT22;10375;49.136;10.366;2024-01-07T13:36:33;0.30;99.90
20432;DHT22;10375;49.136;10.366;2024-01-07T13:39:00;0.30;99.90
20432;DHT22;10375;49.136;10.366;2024-01-07T13:41:28;0.30;99.90
20432;DHT22;10375;49.136;10.366;2024-01-07T13:43:56;0.20;99.90
20432;DHT22;10375;49.136;10.366;2024-01-07T13:46:24;0.20;99.90
20432;DHT22;10375;49.136;10.366;2024-01-07T13:48:53;0.20;99.90
20432;DHT22;10375;49.136;10.366;2024-01-07T13:51:23;0.30;99.90
20432;DHT22;10375;49.136;10.366;2024-01-07T13:53:51;0.30;99.90
20432;DHT22;10375;49.136;10.366;2024-01-07T13:56:18;0.30;99.90
20432;DHT22;10375;49.136;10.366;2024-01-07T13:58:45;0.30;99.90
20432;DHT22;10375;49.136;10.366;2024-01-07T14:01:16;0.30;99.90
20432;DHT22;10375;49.136;10.366;2024-01-07T14:03:43;0.30;99.90
20432;DHT22;10375;49.136;10.366;2024-01-07T14:06:10;0.30;99.90
20432;DHT22;10375;49.136;10.366;2024-01-07T14:08:37;0.30;99.90
20432;DHT22;10375;49.136;10.366;2024-01-07T14:11:05;0.20;99.90
20432;DHT22;10375;49.136;10.366;2024-01-07T14:13:34;0.20;99.90
20432;DHT22;10375;49.136;10.366;2024-01-07T14:16:01;0.20;99.90
20432;DHT22;10375;49.136;10.366;2024-01-07T14:18:29;0.20;99.90
20432;DHT22;10375;49.136;10.366;2024-01-07T14:20:56;0.20;99.90
20432;DHT22;10375;49.136;10.366;2024-01-07T14:23:23;0.10;99.90
20432;DHT22;10375;49.136;10.366;2024-01-07T14:25:50;0.20;99.90
20432;DHT22;10375;49.136;10.366;2024-01-07T14:28:17;0.10;99.90
20432;DHT22;10375;49.136;10.366;2024-01-07T14:30:45;0.10;99.90
20432;DHT22;10375;49.136;10.366;2024-01-07T14:33:12;0.10;99.90
20432;DHT22;10375;49.136;10.366;2024-01-07T14:35:40;0.10;99.90
20432;DHT22;10375;49.136;10.366;2024-01-07T14:38:08;0.10;99.90
20432;DHT22;10375;49.136;10.366;2024-01-07T14:40:35;0.00;99.90
20432;DHT22;10375;49.136;10.366;2024-01-07T14:43:02;-0.10;99.90
20432;DHT22;10375;49.136;10.366;2024-01-07T14:45:30;-0.10;99.90
20432;DHT22;10375;49.136;10.366;2024-01-07T14:47:57;-0.10;99.90
20432;DHT22;10375;49.136;10.366;2024-01-07T14:50:25;-0.10;99.90
20432;DHT22;10375;49.136;10.366;2024-01-07T14:53:02;-0.20;99.90
20432;DHT22;10375;49.136;10.366;2024-01-07T14:55:29;-0.20;99.90
20432;DHT22;10375;49.136;10.366;2024-01-07T14:57:57;-0.20;99.90
20432;DHT22;10375;49.136;10.366;2024-01-07T15:00:25;-0.20;99.90
20432;DHT22;10375;49.136;10.366;2024-01-07T15:02:52;-0.20;99.90
20432;DHT22;10375;49.136;10.366;2024-01-07T15:05:19;-0.10;99.90
20432;DHT22;10375;49.136;10.366;2024-01-07T15:07:46;-0.10;99.90
20432;DHT22;10375;49.136;10.366;2024-01-07T15:10:16;-0.10;99.90
20432;DHT22;10375;49.136;10.366;2024-01-07T15:12:45;-0.10;99.90
20432;DHT22;10375;49.136;10.366;2024-01-07T15:15:23;-0.10;99.90
20432;DHT22;10375;49.136;10.366;2024-01-07T15:17:57;-0.10;99.90
20432;DHT22;10375;49.136;10.366;2024-01-07T15:20:25;-0.10;99.90
20432;DHT22;10375;49.136;10.366;2024-01-07T15:22:52;-0.10;99.90
20432;DHT22;10375;49.136;10.366;2024-01-07T15:25:19;-0.20;99.90
20432;DHT22;10375;49.136;10.366;2024-01-07T15:27:46;-0.30;99.90
20432;DHT22;10375;49.136;10.366;2024-01-07T15:30:13;-0.30;99.90
20432;DHT22;10375;49.136;10.366;2024-01-07T15:32:43;-0.40;99.90
20432;DHT22;10375;49.136;10.366;2024-01-07T15:35:11;-0.40;99.90
20432;DHT22;10375;49.136;10.366;2024-01-07T15:37:38;-0.40;99.90